createdAt,value
2022-10-06T00:01:29.056Z,100987.47
2022-10-06T00:04:05.469Z,100992.50
2022-10-06T00:06:34.907Z,100988.94
2022-10-06T00:09:03.716Z,100999.25
2022-10-06T00:11:34.311Z,100981.13
2022-10-06T00:14:03.203Z,100984.47
2022-10-06T00:16:31.798Z,100983.13
2022-10-06T00:19:00.600Z,100994.31
2022-10-06T00:21:29.298Z,101000.50
2022-10-06T00:23:58.768Z,100987.66
2022-10-06T00:26:28.153Z,101003.94
2022-10-06T00:28:58.663Z,101013.88
2022-10-06T00:31:28.296Z,101022.06
2022-10-06T00:33:57.319Z,101018.50
2022-10-06T00:36:26.058Z,101026.09
2022-10-06T00:38:54.803Z,101022.69
2022-10-06T00:41:23.651Z,101035.25
2022-10-06T00:43:55.463Z,101031.84
2022-10-06T00:46:35.591Z,101054.13
2022-10-06T00:49:13.607Z,101049.41
2022-10-06T00:51:49.760Z,101049.78
2022-10-06T00:54:20.920Z,101043.38
2022-10-06T00:56:50.278Z,101036.31
2022-10-06T00:59:20.955Z,101043.84
2022-10-06T01:02:04.755Z,101051.44
2022-10-06T01:04:37.007Z,101072.53
2022-10-06T01:07:06.299Z,101066.28
2022-10-06T01:09:36.862Z,101070.91
2022-10-06T01:12:09.943Z,101074.09
2022-10-06T01:14:41.552Z,101085.44
2022-10-06T01:17:20.774Z,101077.78
2022-10-06T01:19:55.982Z,101078.06
2022-10-06T01:22:32.253Z,101087.38
2022-10-06T01:25:01.895Z,101096.75
2022-10-06T01:27:33.486Z,101107.03
2022-10-06T01:30:03.394Z,101120.00
2022-10-06T01:32:38.713Z,101106.91
2022-10-06T01:35:10.840Z,101107.66
2022-10-06T01:37:40.923Z,101126.47
2022-10-06T01:40:10.810Z,101125.81
2022-10-06T01:42:39.937Z,101123.41
2022-10-06T01:45:10.071Z,101130.09
2022-10-06T01:47:39.304Z,101143.53
2022-10-06T01:50:09.606Z,101151.50
2022-10-06T01:52:40.627Z,101166.34
2022-10-06T01:55:10.250Z,101159.34
2022-10-06T01:57:41.352Z,101163.50
2022-10-06T02:00:13.149Z,101169.47
2022-10-06T02:02:42.025Z,101178.03
2022-10-06T02:05:11.324Z,101185.69
2022-10-06T02:07:42.130Z,101175.47
2022-10-06T02:10:11.540Z,101181.16
2022-10-06T02:12:43.060Z,101207.34
2022-10-06T02:15:12.633Z,101197.50
2022-10-06T02:17:41.843Z,101201.03
2022-10-06T02:20:11.131Z,101204.13
2022-10-06T02:22:44.986Z,101196.88
2022-10-06T02:25:14.135Z,101217.22
2022-10-06T02:27:43.053Z,101212.94
2022-10-06T02:30:14.646Z,101230.09
2022-10-06T02:32:44.316Z,101226.00
2022-10-06T02:35:14.087Z,101215.19
2022-10-06T02:37:44.164Z,101241.78
2022-10-06T02:40:12.931Z,101250.38
2022-10-06T02:42:42.013Z,101259.19
2022-10-06T02:45:11.425Z,101276.03
2022-10-06T02:47:40.445Z,101283.00
2022-10-06T02:50:13.939Z,101290.41
2022-10-06T02:52:44.019Z,101297.78
2022-10-06T02:55:13.352Z,101304.03
2022-10-06T02:57:42.431Z,101290.97
2022-10-06T03:00:15.124Z,101310.31
2022-10-06T03:02:43.956Z,101310.66
2022-10-06T03:05:12.763Z,101316.66
2022-10-06T03:07:44.878Z,101311.41
2022-10-06T03:10:13.465Z,101317.53
2022-10-06T03:12:42.114Z,101328.66
2022-10-06T03:15:14.392Z,101329.97
2022-10-06T03:17:43.497Z,101325.09
2022-10-06T03:20:12.107Z,101318.59
2022-10-06T03:22:40.816Z,101343.75
2022-10-06T03:25:11.717Z,101338.91
2022-10-06T03:27:42.076Z,101343.75
2022-10-06T03:30:12.165Z,101350.84
2022-10-06T03:32:41.952Z,101353.44
2022-10-06T03:35:11.693Z,101358.72
2022-10-06T03:37:40.464Z,101364.25
2022-10-06T03:40:12.368Z,101367.06
2022-10-06T03:42:43.688Z,101370.91
2022-10-06T03:45:12.625Z,101366.44
2022-10-06T03:47:41.168Z,101380.75
2022-10-06T03:50:11.335Z,101389.38
2022-10-06T03:52:41.126Z,101388.72
2022-10-06T03:55:11.426Z,101396.47
2022-10-06T03:57:40.196Z,101408.31
2022-10-06T04:00:10.439Z,101404.31
2022-10-06T04:02:39.418Z,101398.56
2022-10-06T04:05:09.360Z,101404.22
2022-10-06T04:07:41.980Z,101411.25
2022-10-06T04:10:12.771Z,101421.19
2022-10-06T04:12:41.639Z,101418.41
2022-10-06T04:15:14.313Z,101422.09
2022-10-06T04:17:43.216Z,101431.91
2022-10-06T04:20:11.898Z,101410.78
2022-10-06T04:22:40.553Z,101436.16
2022-10-06T04:25:11.671Z,101446.59
2022-10-06T04:27:40.700Z,101441.97
2022-10-06T04:30:10.808Z,101456.66
2022-10-06T04:32:39.597Z,101457.78
2022-10-06T04:35:10.297Z,101458.03
2022-10-06T04:37:39.490Z,101469.31
2022-10-06T04:40:09.992Z,101467.00
2022-10-06T04:42:43.517Z,101471.41
2022-10-06T04:45:13.106Z,101471.63
2022-10-06T04:47:41.963Z,101481.91
2022-10-06T04:50:11.639Z,101494.91
2022-10-06T04:52:41.307Z,101500.78
2022-10-06T04:55:15.001Z,101499.22
2022-10-06T04:57:45.207Z,101507.06
2022-10-06T05:00:27.014Z,101512.22
2022-10-06T05:02:56.859Z,101513.69
2022-10-06T05:05:25.793Z,101517.34
2022-10-06T05:07:54.804Z,101525.91
2022-10-06T05:10:23.504Z,101533.03
2022-10-06T05:12:53.661Z,101541.00
2022-10-06T05:15:22.282Z,101535.75
2022-10-06T05:17:51.078Z,101536.81
2022-10-06T05:20:23.297Z,101547.22
2022-10-06T05:22:51.827Z,101567.31
2022-10-06T05:25:20.714Z,101572.81
2022-10-06T05:27:49.797Z,101578.22
2022-10-06T05:30:20.237Z,101582.13
2022-10-06T05:32:50.611Z,101578.22
2022-10-06T05:35:20.226Z,101595.25
2022-10-06T05:37:49.320Z,101590.59
2022-10-06T05:40:18.102Z,101602.97
2022-10-06T05:42:46.663Z,101606.41
2022-10-06T05:45:17.960Z,101609.59
2022-10-06T05:47:48.091Z,101617.44
2022-10-06T05:50:17.040Z,101626.25
2022-10-06T05:52:46.254Z,101622.59
2022-10-06T05:55:15.034Z,101633.97
2022-10-06T05:57:44.006Z,101647.94
2022-10-06T06:00:14.044Z,101641.25
2022-10-06T06:02:45.394Z,101647.59
2022-10-06T06:05:15.813Z,101618.44
2022-10-06T06:07:47.198Z,101645.63
2022-10-06T06:10:16.041Z,101656.66
2022-10-06T06:12:44.685Z,101664.97
2022-10-06T06:15:30.793Z,101663.13
2022-10-06T06:18:01.688Z,101666.97
2022-10-06T06:20:31.976Z,101676.28
2022-10-06T06:23:00.666Z,101677.97
2022-10-06T06:25:29.571Z,101684.38
2022-10-06T06:28:01.502Z,101694.78
2022-10-06T06:30:30.626Z,101699.59
2022-10-06T06:33:00.488Z,101694.75
2022-10-06T06:35:34.473Z,101718.88
2022-10-06T06:38:03.237Z,101705.16
2022-10-06T06:40:35.055Z,101708.59
2022-10-06T06:43:03.656Z,101723.75
2022-10-06T06:45:33.186Z,101724.44
2022-10-06T06:48:02.521Z,101732.78
2022-10-06T06:50:35.869Z,101740.66
2022-10-06T06:53:04.781Z,101741.25
2022-10-06T06:55:36.579Z,101745.41
2022-10-06T06:58:05.372Z,101749.63
2022-10-06T07:00:36.321Z,101768.19
2022-10-06T07:03:06.429Z,101771.19
2022-10-06T07:05:36.716Z,101770.69
2022-10-06T07:08:05.485Z,101787.28
2022-10-06T07:10:40.664Z,101787.16
2022-10-06T07:13:09.360Z,101789.72
2022-10-06T07:15:59.788Z,101792.28
2022-10-06T07:18:46.392Z,101794.97
2022-10-06T07:21:34.437Z,101793.09
2022-10-06T07:24:20.576Z,101800.34
2022-10-06T07:26:49.299Z,101806.56
2022-10-06T07:29:18.346Z,101804.06
2022-10-06T07:31:49.440Z,101807.16
2022-10-06T07:34:18.355Z,101810.63
2022-10-06T07:36:49.206Z,101809.00
2022-10-06T07:39:21.541Z,101805.97
2022-10-06T07:41:50.479Z,101820.91
2022-10-06T07:44:19.139Z,101815.63
2022-10-06T07:46:48.711Z,101821.13
2022-10-06T07:49:17.810Z,101825.94
2022-10-06T07:51:48.117Z,101825.13
2022-10-06T07:54:16.873Z,101825.13
2022-10-06T07:56:45.640Z,101833.97
2022-10-06T07:59:14.378Z,101847.72
2022-10-06T08:01:44.641Z,101851.88
2022-10-06T08:04:13.959Z,101858.56
2022-10-06T08:06:43.168Z,101867.38
2022-10-06T08:09:13.324Z,101874.13
2022-10-06T08:11:42.068Z,101873.72
2022-10-06T08:14:11.604Z,101886.88
2022-10-06T08:16:40.259Z,101898.91
2022-10-06T08:19:09.015Z,101897.91
2022-10-06T08:21:39.192Z,101908.00
2022-10-06T08:24:08.142Z,101912.19
2022-10-06T08:26:38.919Z,101913.78
2022-10-06T08:29:07.935Z,101909.84
2022-10-06T08:31:36.977Z,101919.91
2022-10-06T08:34:12.136Z,101916.97
2022-10-06T08:36:48.228Z,101923.66
2022-10-06T08:39:34.355Z,101940.13
2022-10-06T08:42:04.992Z,101954.97
2022-10-06T08:44:41.628Z,101945.63
2022-10-06T08:47:18.491Z,101953.13
2022-10-06T08:49:49.502Z,101949.00
2022-10-06T08:52:33.598Z,101960.25
2022-10-06T08:55:14.061Z,101962.38
2022-10-06T08:57:59.472Z,101963.44
2022-10-06T09:00:33.967Z,101943.53
2022-10-06T09:03:05.240Z,101966.97
2022-10-06T09:05:37.486Z,101951.84
2022-10-06T09:08:35.499Z,101976.16
2022-10-06T09:11:27.744Z,101979.50
2022-10-06T09:14:05.710Z,101970.31
2022-10-06T09:16:41.214Z,101991.09
2022-10-06T09:19:19.569Z,101987.16
2022-10-06T09:21:51.853Z,101983.75
2022-10-06T09:24:34.475Z,101995.28
2022-10-06T09:27:19.771Z,101981.13
2022-10-06T09:29:50.862Z,101988.06
2022-10-06T09:32:22.236Z,101975.13
2022-10-06T09:34:55.537Z,101983.06
2022-10-06T09:37:25.219Z,101998.22
2022-10-06T09:39:56.873Z,101987.75
2022-10-06T09:42:32.919Z,102002.22
2022-10-06T09:45:08.231Z,101991.38
2022-10-06T09:47:45.387Z,102003.00
2022-10-06T09:50:23.007Z,102012.53
2022-10-06T09:53:19.027Z,102014.47
2022-10-06T09:55:55.015Z,102015.53
2022-10-06T09:58:32.802Z,102032.50
2022-10-06T10:01:06.588Z,102026.47
2022-10-06T10:04:18.721Z,102029.28
2022-10-06T10:06:43.292Z,102036.78
2022-10-06T10:09:25.707Z,102037.03
2022-10-06T10:12:28.093Z,102041.75
2022-10-06T10:15:04.157Z,102047.63
2022-10-06T10:17:45.656Z,102075.34
2022-10-06T10:20:41.692Z,102071.28
2022-10-06T10:23:31.040Z,102057.44
2022-10-06T10:26:14.653Z,102071.31
2022-10-06T10:29:18.374Z,102066.28
2022-10-06T10:32:05.692Z,102082.75
2022-10-06T10:35:02.329Z,102095.97
2022-10-06T10:37:43.919Z,102086.09
2022-10-06T10:40:28.623Z,102105.72
2022-10-06T10:43:12.362Z,102112.25
2022-10-06T10:45:48.548Z,102119.03
2022-10-06T10:48:25.495Z,102119.75
2022-10-06T10:51:06.459Z,102117.94
2022-10-06T10:53:49.655Z,102117.94
2022-10-06T10:56:22.982Z,102108.50
2022-10-06T10:58:55.727Z,102105.44
2022-10-06T11:01:34.348Z,102105.88
2022-10-06T11:04:04.368Z,102100.88
2022-10-06T11:07:13.904Z,102112.88
2022-10-06T11:09:56.066Z,102110.03
2022-10-06T11:12:52.380Z,102108.06
2022-10-06T11:15:39.943Z,102121.47
2022-10-06T11:18:26.025Z,102103.25
2022-10-06T11:21:01.188Z,102137.91
2022-10-06T11:23:51.072Z,102143.75
2022-10-06T11:26:52.391Z,102129.63
2022-10-06T11:32:53.250Z,102123.88
2022-10-06T11:35:26.969Z,102132.59
2022-10-06T11:38:03.097Z,102149.63
2022-10-06T11:40:54.867Z,102129.47
2022-10-06T11:43:37.704Z,102116.75
2022-10-06T11:46:28.342Z,102125.06
2022-10-06T11:50:00.249Z,102132.59
2022-10-06T11:52:54.356Z,102154.97
2022-10-06T11:55:28.922Z,102128.06
2022-10-06T11:58:41.490Z,102100.44
2022-10-06T12:01:05.289Z,102133.63
2022-10-06T12:04:06.539Z,102128.50
2022-10-06T12:07:01.901Z,102125.63
2022-10-06T12:09:52.673Z,102131.66
2022-10-06T12:13:05.339Z,102144.69
2022-10-06T12:19:26.139Z,102120.03
2022-10-06T12:22:02.017Z,102120.94
2022-10-06T12:24:47.286Z,102150.50
2022-10-06T12:27:43.846Z,102146.25
2022-10-06T12:30:24.755Z,102133.06
2022-10-06T12:33:00.737Z,102136.81
2022-10-06T12:35:36.248Z,102140.53
2022-10-06T12:38:08.472Z,102159.38
2022-10-06T12:40:56.062Z,102158.97
2022-10-06T12:43:55.876Z,102170.28
2022-10-06T12:46:45.139Z,102167.53
2022-10-06T12:49:53.896Z,102181.50
2022-10-06T12:52:41.060Z,102172.09
2022-10-06T12:55:45.652Z,102185.38
2022-10-06T12:58:21.803Z,102175.47
2022-10-06T13:00:50.670Z,102171.16
2022-10-06T13:03:25.894Z,102157.16
2022-10-06T13:06:02.605Z,102158.75
2022-10-06T13:08:34.102Z,102177.75
2022-10-06T13:11:23.435Z,102168.16
2022-10-06T13:13:55.107Z,102179.47
2022-10-06T13:16:27.717Z,102192.34
2022-10-06T13:18:59.469Z,102185.78
2022-10-06T13:21:31.741Z,102199.13
2022-10-06T13:24:00.678Z,102208.19
2022-10-06T13:26:32.870Z,102196.53
2022-10-06T13:29:02.387Z,102195.06
2022-10-06T13:31:34.813Z,102194.69
2022-10-06T13:34:07.334Z,102206.25
2022-10-06T13:36:40.505Z,102190.03
2022-10-06T13:39:15.954Z,102196.09
2022-10-06T13:41:48.466Z,102198.03
2022-10-06T13:44:34.969Z,102200.41
2022-10-06T13:47:08.589Z,102198.63
2022-10-06T13:49:47.653Z,102206.34
2022-10-06T13:52:23.450Z,102190.09
2022-10-06T13:54:56.431Z,102185.50
2022-10-06T13:57:41.517Z,102202.06
2022-10-06T14:00:21.458Z,102200.16
2022-10-06T14:02:54.937Z,102203.81
2022-10-06T14:05:33.323Z,102197.81
2022-10-06T14:08:16.171Z,102202.09
2022-10-06T14:10:52.049Z,102209.00
2022-10-06T14:13:24.246Z,102190.06
2022-10-06T14:15:56.220Z,102203.97
2022-10-06T14:18:28.622Z,102200.22
2022-10-06T14:20:58.485Z,102198.44
2022-10-06T14:23:50.492Z,102203.84
2022-10-06T14:26:21.452Z,102201.44
2022-10-06T14:28:53.138Z,102209.19
2022-10-06T14:31:22.630Z,102212.91
2022-10-06T14:33:53.995Z,102207.09
2022-10-06T14:36:27.420Z,102215.19
2022-10-06T14:38:59.488Z,102212.66
2022-10-06T14:41:29.796Z,102211.41
2022-10-06T14:44:02.154Z,102221.25
2022-10-06T14:46:32.187Z,102231.72
2022-10-06T14:49:03.345Z,102232.19
2022-10-06T14:51:36.908Z,102233.78
2022-10-06T14:54:10.342Z,102227.06
2022-10-06T14:56:41.061Z,102229.66
2022-10-06T14:59:17.304Z,102223.69
2022-10-06T15:01:50.859Z,102218.13
2022-10-06T15:04:24.468Z,102221.00
2022-10-06T15:07:11.758Z,102233.88
2022-10-06T15:09:43.121Z,102252.31
2022-10-06T15:12:15.424Z,102248.75
2022-10-06T15:14:44.085Z,102241.97
2022-10-06T15:17:15.657Z,102243.38
2022-10-06T15:19:44.427Z,102248.22
2022-10-06T15:22:16.864Z,102241.69
2022-10-06T15:24:50.525Z,102246.78
2022-10-06T15:30:12.146Z,102254.56
2022-10-06T15:32:41.091Z,102245.34
2022-10-06T15:35:11.467Z,102254.25
2022-10-06T15:37:41.311Z,102271.47
2022-10-06T15:40:15.190Z,102270.56
2022-10-06T15:42:44.717Z,102273.41
2022-10-06T15:45:13.670Z,102269.59
2022-10-06T15:47:42.742Z,102272.91
2022-10-06T15:50:18.711Z,102278.81
2022-10-06T15:52:50.040Z,102287.44
2022-10-06T15:55:20.598Z,102271.81
2022-10-06T15:57:49.526Z,102282.47
2022-10-06T16:00:19.008Z,102293.69
2022-10-06T16:02:48.917Z,102297.50
2022-10-06T16:05:37.812Z,102294.81
2022-10-06T16:08:09.766Z,102298.03
2022-10-06T16:10:40.262Z,102307.06
2022-10-06T16:13:09.841Z,102306.69
2022-10-06T16:15:38.813Z,102304.91
2022-10-06T16:18:07.669Z,102311.25
2022-10-06T16:20:36.766Z,102327.91
2022-10-06T16:23:06.953Z,102331.88
2022-10-06T16:25:42.219Z,102343.78
2022-10-06T16:28:14.457Z,102350.75
2022-10-06T16:30:43.643Z,102347.50
2022-10-06T16:33:12.753Z,102351.81
2022-10-06T16:35:42.479Z,102356.00
2022-10-06T16:38:14.394Z,102361.53
2022-10-06T16:40:44.292Z,102353.72
2022-10-06T16:43:26.313Z,102362.38
2022-10-06T16:46:03.884Z,102366.22
2022-10-06T16:48:38.570Z,102371.47
2022-10-06T16:51:14.853Z,102364.75
2022-10-06T16:53:47.291Z,102367.84
2022-10-06T16:56:23.129Z,102376.72
2022-10-06T16:58:58.230Z,102374.03
2022-10-06T17:01:31.955Z,102377.97
2022-10-06T17:04:05.499Z,102385.94
2022-10-06T17:06:41.313Z,102387.41
2022-10-06T17:09:21.705Z,102386.06
2022-10-06T17:11:53.411Z,102398.47
2022-10-06T17:14:24.883Z,102395.69
2022-10-06T17:16:59.898Z,102387.66
2022-10-06T17:19:31.839Z,102391.47
2022-10-06T17:22:02.019Z,102404.31
2022-10-06T17:24:31.687Z,102394.81
2022-10-06T17:27:01.463Z,102396.03
2022-10-06T17:29:32.105Z,102400.59
2022-10-06T17:32:01.315Z,102395.94
2022-10-06T17:34:33.214Z,102407.06
2022-10-06T17:37:03.968Z,102402.66
2022-10-06T17:39:33.267Z,102394.88
2022-10-06T17:42:02.248Z,102401.28
2022-10-06T17:44:32.602Z,102393.50
2022-10-06T17:47:02.467Z,102388.53
2022-10-06T17:49:34.832Z,102392.47
2022-10-06T17:52:06.862Z,102391.47
2022-10-06T17:54:35.869Z,102392.53
2022-10-06T17:57:05.624Z,102395.31
2022-10-06T17:59:39.289Z,102400.69
2022-10-06T18:02:14.397Z,102399.66
2022-10-06T18:04:45.201Z,102398.75
2022-10-06T18:07:14.685Z,102401.81
2022-10-06T18:10:04.356Z,102409.16
2022-10-06T18:12:38.904Z,102405.81
2022-10-06T18:15:12.476Z,102411.31
2022-10-06T18:17:41.619Z,102417.22
2022-10-06T18:20:11.641Z,102419.91
2022-10-06T18:22:40.636Z,102419.69
2022-10-06T18:25:16.739Z,102409.63
2022-10-06T18:27:48.028Z,102409.88
2022-10-06T18:30:22.247Z,102407.47
2022-10-06T18:38:37.264Z,102407.88
2022-10-06T18:41:09.287Z,102407.63
2022-10-06T18:43:38.288Z,102403.03
2022-10-06T18:46:29.459Z,102409.00
2022-10-06T18:49:00.534Z,102407.28
2022-10-06T18:51:32.612Z,102411.56
2022-10-06T18:54:04.134Z,102421.38
2022-10-06T18:56:35.350Z,102419.09
2022-10-06T18:59:09.392Z,102414.44
2022-10-06T19:01:42.690Z,102421.63
2022-10-06T19:04:14.264Z,102415.25
2022-10-06T19:06:47.018Z,102419.16
2022-10-06T19:09:18.179Z,102408.94
2022-10-06T19:11:52.051Z,102408.63
2022-10-06T19:14:25.612Z,102423.41
2022-10-06T19:16:59.543Z,102415.25
2022-10-06T19:19:31.720Z,102417.00
2022-10-06T19:22:03.824Z,102426.84
2022-10-06T19:24:37.317Z,102415.25
2022-10-06T19:27:12.304Z,102424.56
2022-10-06T19:29:46.148Z,102428.56
2022-10-06T19:32:21.346Z,102431.69
2022-10-06T19:34:50.211Z,102442.66
2022-10-06T19:37:19.790Z,102430.06
2022-10-06T19:39:50.294Z,102438.78
2022-10-06T19:42:39.058Z,102437.84
2022-10-06T19:45:11.931Z,102439.88
2022-10-06T19:47:46.213Z,102443.50
2022-10-06T19:50:17.804Z,102439.22
2022-10-06T19:52:49.675Z,102435.25
2022-10-06T19:55:23.229Z,102441.44
2022-10-06T19:57:52.695Z,102435.25
2022-10-06T20:00:21.720Z,102442.38
2022-10-06T20:02:52.507Z,102447.13
2022-10-06T20:05:21.695Z,102442.16
2022-10-06T20:07:50.423Z,102439.19
2022-10-06T20:10:19.069Z,102435.50
2022-10-06T20:12:47.628Z,102439.19
2022-10-06T20:15:16.597Z,102441.41
2022-10-06T20:17:47.155Z,102439.84
2022-10-06T20:20:18.935Z,102434.47
2022-10-06T20:22:47.611Z,102433.47
2022-10-06T20:25:16.697Z,102439.00
2022-10-06T20:27:45.794Z,102431.53
2022-10-06T20:30:15.017Z,102437.25
2022-10-06T20:32:44.512Z,102435.50
2022-10-06T20:35:13.448Z,102440.72
2022-10-06T20:37:43.824Z,102441.00
2022-10-06T20:40:33.250Z,102430.31
2022-10-06T20:43:02.049Z,102430.78
2022-10-06T20:45:31.305Z,102430.59
2022-10-06T20:48:01.940Z,102435.50
2022-10-06T20:50:32.090Z,102431.38
2022-10-06T20:53:02.383Z,102429.03
2022-10-06T20:55:31.199Z,102424.44
2022-10-06T20:57:59.921Z,102419.94
2022-10-06T21:00:28.940Z,102424.31
2022-10-06T21:03:00.965Z,102426.41
2022-10-06T21:05:33.353Z,102423.47
2022-10-06T21:08:03.747Z,102421.81
2022-10-06T21:10:33.047Z,102427.56
2022-10-06T21:13:02.222Z,102429.81
2022-10-06T21:15:31.072Z,102435.63
2022-10-06T21:17:59.897Z,102437.63
2022-10-06T21:20:28.692Z,102435.50
2022-10-06T21:22:57.713Z,102432.22
2022-10-06T21:25:27.892Z,102436.53
2022-10-06T21:27:56.939Z,102433.19
2022-10-06T21:30:25.688Z,102432.78
2022-10-06T21:32:54.993Z,102428.34
2022-10-06T21:35:24.273Z,102429.16
2022-10-06T21:37:53.243Z,102435.72
2022-10-06T21:40:22.245Z,102431.56
2022-10-06T21:42:53.315Z,102431.84
2022-10-06T21:45:24.634Z,102432.44
2022-10-06T21:47:54.311Z,102436.41
2022-10-06T21:50:23.291Z,102429.81
2022-10-06T21:52:52.635Z,102419.38
2022-10-06T21:55:21.557Z,102419.38
2022-10-06T21:57:52.050Z,102425.34
2022-10-06T22:00:21.350Z,102423.78
2022-10-06T22:02:50.261Z,102423.22
2022-10-06T22:05:19.578Z,102423.56
2022-10-06T22:07:48.341Z,102426.09
2022-10-06T22:10:17.510Z,102431.63
2022-10-06T22:12:46.446Z,102430.59
2022-10-06T22:15:16.985Z,102432.09
2022-10-06T22:17:47.594Z,102435.16
2022-10-06T22:20:16.491Z,102429.19
2022-10-06T22:22:45.288Z,102428.53
2022-10-06T22:25:14.310Z,102431.63
2022-10-06T22:27:43.605Z,102430.53
2022-10-06T22:30:14.094Z,102430.28
2022-10-06T22:32:44.771Z,102430.47
2022-10-06T22:35:14.070Z,102433.59
2022-10-06T22:37:43.686Z,102426.03
2022-10-06T22:40:13.224Z,102429.50
2022-10-06T22:42:42.423Z,102426.97
2022-10-06T22:45:12.764Z,102422.56
2022-10-06T22:47:42.067Z,102425.25
2022-10-06T22:50:15.482Z,102431.53
2022-10-06T22:52:44.786Z,102425.47
2022-10-06T22:55:14.650Z,102426.00
2022-10-06T22:57:44.206Z,102423.34
2022-10-06T23:00:15.560Z,102423.63
2022-10-06T23:02:44.700Z,102423.50
2022-10-06T23:05:15.468Z,102417.41
2022-10-06T23:07:47.717Z,102420.38
2022-10-06T23:10:17.257Z,102415.84
2022-10-06T23:12:47.781Z,102416.28
2022-10-06T23:15:17.623Z,102412.81
2022-10-06T23:17:47.322Z,102410.06
2022-10-06T23:20:19.452Z,102407.59
2022-10-06T23:22:49.397Z,102392.69
2022-10-06T23:25:23.726Z,102403.19
2022-10-06T23:27:55.332Z,102397.91
2022-10-06T23:30:24.285Z,102404.81
2022-10-06T23:32:53.788Z,102405.34
2022-10-06T23:35:24.344Z,102402.59
2022-10-06T23:37:53.350Z,102401.94
2022-10-06T23:40:22.356Z,102393.31
2022-10-06T23:42:51.518Z,102389.22
2022-10-06T23:45:21.040Z,102401.75
2022-10-06T23:47:50.602Z,102393.41
2022-10-06T23:50:19.477Z,102382.69
2022-10-06T23:52:51.135Z,102384.56
2022-10-06T23:55:20.593Z,102382.81
2022-10-06T23:57:49.591Z,102383.03
